Terminal Aerodrome Forecast
Issued by NWS Jackson, MS

Home | Current Version | Previous Version | Text Only | Print | Product List | Glossary On
Versions: 1 2 3 4 5 6 7 8 9 10 11 12 13 14 15 16 17
000
FTUS44 KJAN 211154
TAFHBG
TAF
KHBG 211154Z 2112/2212 09008KT 6SM -RA BR BKN005 OVC040
     FM211300 15004KT 4SM RA BR BKN007 OVC035
     FM211700 VRB04KT 5SM SHRA BKN025 OVC050
     FM212100 VRB04KT P6SM SHRA BKN015 OVC040
     FM220600 00000KT 2SM BR OVC003=

USA.gov is the U.S. government's official web portal to all federal, state and local government web resources and services.